Aviation Digital Data Service (ADDS)

Output produced by METARs form (2351 UTC 23 May 2022)
found at http://www.aviationweather.gov/metar/data/
 
LRTZ 232300Z 27006KT 9999 FEW100 SCT200 13/12 Q1012 BLU BLU
TAF LRTZ 231700Z 2318/2418 27004KT 9999 FEW100 SCT200 
     BECMG 2403/2405 35008KT 
     TEMPO 2409/2413 SCT040 
     BECMG 2412/2414 15010KT
       
LRCK 232330Z 34005KT CAVOK 10/06 Q1012 NOSIG
TAF LRCK 232300Z 2400/2500 33007KT CAVOK 
     BECMG 2407/2409 13012KT 
     TEMPO 2410/2415 SCT040CB 
     BECMG 2420/2422 3000 BR 
     BECMG 2422/2500 1500 BR BKN002
       
LRTC 232330Z AUTO 03005KT 350V050 9999 -SHRA BKN090/// 11/07 Q1012
TAF LRTC 231400Z 2315/2400 30008KT CAVOK
       
LRFT 232300Z 04005KT 9999 FEW150 08/07 Q1012 BLU BLU
TAF LRFT 231700Z 2318/2418 34005KT 9999 BKN100 
     BECMG 2319/2321 SCT150 
     PROB30 
     TEMPO 2401/2404 5000 BR 
     BECMG 2409/2411 14008KT BKN060
       
LRBO 232300Z 35006KT 9999 SKC 12/08 Q1012 BLU BLU
TAF LRBO 231700Z 2318/2418 04006KT 9999 SKC 
     BECMG 2408/2410 BKN060
       
LRBC 232330Z 07002KT CAVOK 13/09 Q1013
TAF LRBC 232300Z 2400/2409 36006KT 9999 BKN060
       
LRIA 232330Z 28002KT CAVOK 11/09 Q1013
TAF LRIA 232300Z 2400/2409 26005KT CAVOK 
     PROB30 
     TEMPO 2400/2404 3000 BR
       
LRSV 232330Z 32005KT CAVOK 12/09 Q1013
TAF LRSV 232300Z 2400/2409 33007KT CAVOK
       
LROP 232330Z 04007KT 360V070 CAVOK 14/10 Q1013 NOSIG
TAF LROP 232300Z 2400/2500 09008KT CAVOK 
     PROB40 
     TEMPO 2413/2416 26010KT 5000 -SHRA SCT040CB
       
LRBS 232330Z 02005KT CAVOK 14/10 Q1013 NOSIG
TAF LRBS 232300Z 2400/2500 08008KT CAVOK 
     PROB40 
     TEMPO 2413/2416 26010KT 5000 -SHRA SCT040CB
       
LRCV 232330Z 06010KT CAVOK 13/09 Q1010
TAF LRCV 232300Z 2400/2409 07011KT CAVOK 
     PROB30 
     TEMPO 2407/2409 FEW040CB
       
LRSB 232330Z 28003KT CAVOK 08/05 Q1012
TAF LRSB 232300Z 2400/2500 VRB04KT CAVOK 
     TEMPO 2410/2418 5000 SHRA SCT035CB BKN060 
     BECMG 2422/2500 5000 BR
       
LRAR 232330Z AUTO 11006KT 9999 NCD 13/07 Q1010
TAF LRAR 231400Z 2315/2400 02008KT CAVOK
       
LRCL 232330Z 26004KT CAVOK 09/06 Q1012
TAF LRCL 232300Z 2400/2409 VRB04KT CAVOK
       
LRTR 232330Z 09006KT CAVOK 08/07 Q1010
TAF LRTR 232300Z 2400/2500 11008KT CAVOK 
     TEMPO 2402/2409 5000 -SHRA SCT035CB BKN040 
     PROB30 
     TEMPO 2407/2409 VRB20KT -TSRA BKN010 SCT030CB OVC040 
     PROB40 
     TEMPO 2413/2417 5000 -SHRA SCT035CB
       
LRTM 232330Z AUTO 09003KT 9999 NCD 08/06 Q1012
TAF LRTM 231400Z 2315/2400 34010KT CAVOK 
     BECMG 2316/2318 VRB04KT
       
LRBM 232330Z AUTO 06006KT 9999 NCD 10/06 Q1012
TAF LRBM 231400Z 2315/2400 29010KT CAVOK 
     BECMG 2316/2318 VRB03KT
       
LRSM 232330Z AUTO 05002KT 9999 NCD 07/05 Q1011
TAF LRSM 231400Z 2315/2400 36010KT CAVOK 
     BECMG 2318/2320 VRB03KT
       
LROD 232330Z AUTO 11007KT 9999 FEW170/// 12/07 Q1011
TAF LROD 231700Z 2318/2403 VRB04KT CAVOK
       
LRCT 232300Z 32004KT 9999 SCT070 10/06 Q1011 BLU BLU
TAF LRCT 231700Z 2318/2418 33007KT 9999 FEW100 BKN200 
     BECMG 2323/2401 VRB04KT 
     BECMG 2411/2413 20007KT SCT080 BKN150 
     PROB30 
     TEMPO 2413/2417 8000 RA SCT030 BKN060